createdAt,value
2022-09-22T00:01:29.225Z,7.31
2022-09-22T00:03:59.203Z,7.29
2022-09-22T00:06:34.741Z,7.26
2022-09-22T00:09:05.369Z,7.23
2022-09-22T00:11:43.790Z,7.19
2022-09-22T00:14:14.489Z,7.15
2022-09-22T00:16:51.882Z,7.12
2022-09-22T00:19:23.386Z,7.12
2022-09-22T00:21:50.768Z,7.11
2022-09-22T00:24:19.432Z,7.10
2022-09-22T00:26:52.548Z,7.09
2022-09-22T00:29:19.227Z,7.06
2022-09-22T00:31:47.796Z,7.02
2022-09-22T00:34:20.996Z,7.03
2022-09-22T00:36:48.383Z,7.01
2022-09-22T00:39:18.679Z,6.98
2022-09-22T00:41:52.481Z,6.96
2022-09-22T00:44:42.763Z,6.91
2022-09-22T00:47:20.095Z,6.86
2022-09-22T00:50:25.276Z,6.86
2022-09-22T00:53:06.041Z,6.89
2022-09-22T00:55:48.162Z,6.86
2022-09-22T00:58:20.883Z,6.85
2022-09-22T01:00:47.688Z,6.83
2022-09-22T01:03:27.514Z,6.83
2022-09-22T01:06:01.439Z,6.83
2022-09-22T01:08:29.935Z,6.80
2022-09-22T01:10:59.518Z,6.76
2022-09-22T01:13:38.090Z,6.71
2022-09-22T01:16:39.339Z,6.54
2022-09-22T01:19:27.803Z,6.48
2022-09-22T01:22:04.898Z,6.39
2022-09-22T01:24:46.751Z,6.35
2022-09-22T01:27:50.390Z,6.29
2022-09-22T01:30:30.388Z,6.17
2022-09-22T01:33:06.441Z,6.06
2022-09-22T01:36:11.077Z,6.10
2022-09-22T01:39:01.613Z,6.18
2022-09-22T01:42:03.593Z,6.24
2022-09-22T01:44:37.306Z,6.27
2022-09-22T01:47:09.258Z,6.31
2022-09-22T01:49:40.031Z,6.29
2022-09-22T01:52:12.671Z,6.21
2022-09-22T01:54:45.434Z,6.20
2022-09-22T01:57:17.641Z,6.22
2022-09-22T01:59:50.488Z,6.26
2022-09-22T02:02:28.850Z,6.26
2022-09-22T02:05:00.100Z,6.29
2022-09-22T02:07:33.876Z,6.29
2022-09-22T02:10:05.262Z,6.29
2022-09-22T02:12:31.890Z,6.28
2022-09-22T02:14:58.618Z,6.31
2022-09-22T02:17:25.251Z,6.32
2022-09-22T02:19:52.375Z,6.32
2022-09-22T02:22:19.157Z,6.32
2022-09-22T02:24:46.833Z,6.31
2022-09-22T02:27:26.956Z,6.33
2022-09-22T02:30:05.278Z,6.30
2022-09-22T02:32:34.549Z,6.24
2022-09-22T02:35:02.147Z,6.17
2022-09-22T02:37:47.580Z,6.13
2022-09-22T02:40:31.991Z,6.06
2022-09-22T02:43:01.277Z,6.05
2022-09-22T02:45:43.316Z,6.06
2022-09-22T02:48:23.062Z,6.07
2022-09-22T02:50:50.498Z,6.05
2022-09-22T02:53:18.231Z,6.02
2022-09-22T02:55:46.153Z,6.01
2022-09-22T02:58:16.671Z,5.98
2022-09-22T03:00:45.343Z,5.97
2022-09-22T03:03:12.290Z,5.98
2022-09-22T03:05:39.241Z,5.91
2022-09-22T03:08:06.150Z,5.87
2022-09-22T03:10:33.109Z,5.84
2022-09-22T03:13:16.844Z,5.83
2022-09-22T03:15:46.977Z,5.83
2022-09-22T03:18:14.294Z,5.82
2022-09-22T03:20:41.606Z,5.81
2022-09-22T03:23:08.428Z,5.78
2022-09-22T03:25:35.118Z,5.76
2022-09-22T03:28:02.163Z,5.75
2022-09-22T03:30:28.885Z,5.77
2022-09-22T03:32:55.457Z,5.77
2022-09-22T03:35:22.188Z,5.78
2022-09-22T03:37:48.843Z,5.77
2022-09-22T03:40:15.687Z,5.75
2022-09-22T03:42:42.450Z,5.77
2022-09-22T03:45:09.759Z,5.76
2022-09-22T03:47:36.360Z,5.76
2022-09-22T03:50:03.100Z,5.73
2022-09-22T03:52:29.868Z,5.68
2022-09-22T03:54:56.462Z,5.68
2022-09-22T03:57:23.074Z,5.68
2022-09-22T03:59:49.849Z,5.68
2022-09-22T04:02:17.004Z,5.69
2022-09-22T04:04:43.798Z,5.69
2022-09-22T04:07:10.454Z,5.63
2022-09-22T04:09:37.090Z,5.63
2022-09-22T04:12:03.933Z,5.64
2022-09-22T04:14:31.004Z,5.64
2022-09-22T04:16:57.658Z,5.63
2022-09-22T04:19:24.362Z,5.62
2022-09-22T04:21:56.249Z,5.60
2022-09-22T04:24:24.621Z,5.58
2022-09-22T04:27:18.077Z,5.58
2022-09-22T04:29:38.402Z,5.57
2022-09-22T04:32:05.507Z,5.56
2022-09-22T04:34:32.266Z,5.56
2022-09-22T04:36:59.112Z,5.55
2022-09-22T04:39:28.559Z,5.58
2022-09-22T04:41:55.842Z,5.56
2022-09-22T04:44:22.639Z,5.56
2022-09-22T04:46:50.251Z,5.58
2022-09-22T04:49:17.898Z,5.57
2022-09-22T04:51:44.720Z,5.55
2022-09-22T04:54:11.431Z,5.53
2022-09-22T04:56:38.176Z,5.49
2022-09-22T04:59:04.770Z,5.49
2022-09-22T05:01:31.451Z,5.50
2022-09-22T05:03:58.054Z,5.50
2022-09-22T05:06:24.739Z,5.50
2022-09-22T05:08:51.338Z,5.48
2022-09-22T05:11:19.222Z,5.44
2022-09-22T05:13:46.345Z,5.41
2022-09-22T05:16:13.076Z,5.41
2022-09-22T05:18:39.873Z,5.43
2022-09-22T05:21:07.327Z,5.40
2022-09-22T05:23:34.258Z,5.38
2022-09-22T05:26:01.046Z,5.37
2022-09-22T05:28:27.775Z,5.40
2022-09-22T05:30:54.374Z,5.41
2022-09-22T05:33:21.020Z,5.45
2022-09-22T05:35:47.686Z,5.48
2022-09-22T05:38:14.286Z,5.48
2022-09-22T05:40:41.133Z,5.51
2022-09-22T05:43:07.819Z,5.51
2022-09-22T05:45:34.501Z,5.54
2022-09-22T05:48:01.343Z,5.53
2022-09-22T05:50:28.047Z,5.56
2022-09-22T05:53:09.561Z,5.59
2022-09-22T05:55:38.765Z,5.61
2022-09-22T05:58:05.669Z,5.67
2022-09-22T06:00:32.897Z,5.70
2022-09-22T06:02:59.609Z,5.73
2022-09-22T06:05:26.410Z,5.78
2022-09-22T06:08:03.635Z,5.84
2022-09-22T06:10:31.827Z,5.88
2022-09-22T06:13:06.566Z,5.95
2022-09-22T06:15:36.473Z,6.00
2022-09-22T06:18:07.413Z,6.06
2022-09-22T06:20:34.974Z,6.12
2022-09-22T06:23:02.205Z,6.18
2022-09-22T06:25:29.278Z,6.24
2022-09-22T06:28:05.286Z,6.30
2022-09-22T06:30:33.487Z,6.35
2022-09-22T06:33:00.546Z,6.43
2022-09-22T06:35:35.415Z,6.50
2022-09-22T06:38:02.256Z,6.56
2022-09-22T06:40:29.324Z,6.63
2022-09-22T06:43:10.621Z,6.71
2022-09-22T06:45:41.445Z,6.79
2022-09-22T06:48:10.978Z,6.87
2022-09-22T06:50:38.324Z,6.95
2022-09-22T06:53:09.558Z,7.01
2022-09-22T06:55:36.265Z,7.12
2022-09-22T06:58:03.361Z,7.22
2022-09-22T07:00:32.898Z,7.33
2022-09-22T07:03:25.531Z,7.45
2022-09-22T07:06:03.706Z,7.59
2022-09-22T07:08:33.199Z,7.73
2022-09-22T07:11:02.510Z,7.86
2022-09-22T07:13:30.670Z,8.01
2022-09-22T07:16:01.913Z,8.13
2022-09-22T07:18:29.962Z,8.19
2022-09-22T07:21:11.897Z,8.26
2022-09-22T07:23:40.895Z,8.34
2022-09-22T07:26:14.524Z,8.45
2022-09-22T07:28:41.745Z,8.54
2022-09-22T07:31:13.210Z,8.65
2022-09-22T07:33:42.678Z,8.75
2022-09-22T07:36:15.771Z,8.88
2022-09-22T07:38:44.590Z,9.07
2022-09-22T07:41:13.965Z,9.26
2022-09-22T07:43:41.828Z,9.42
2022-09-22T07:46:09.177Z,9.60
2022-09-22T07:48:46.953Z,9.73
2022-09-22T07:51:20.654Z,9.86
2022-09-22T07:53:54.367Z,9.99
2022-09-22T07:56:24.022Z,10.15
2022-09-22T07:58:53.499Z,10.33
2022-09-22T08:01:22.439Z,10.53
2022-09-22T08:03:49.321Z,10.73
2022-09-22T08:06:18.499Z,10.84
2022-09-22T08:08:47.781Z,10.94
2022-09-22T08:11:17.491Z,11.06
2022-09-22T08:13:53.811Z,11.18
2022-09-22T08:16:23.114Z,11.24
2022-09-22T08:18:56.656Z,11.35
2022-09-22T08:21:27.691Z,11.49
2022-09-22T08:23:54.993Z,11.59
2022-09-22T08:26:26.073Z,11.68
2022-09-22T08:28:54.358Z,11.75
2022-09-22T08:31:22.626Z,11.81
2022-09-22T08:33:52.070Z,11.86
2022-09-22T08:36:18.687Z,11.89
2022-09-22T08:38:49.467Z,11.92
2022-09-22T08:41:27.724Z,11.97
2022-09-22T08:43:57.575Z,12.06
2022-09-22T08:46:44.162Z,12.21
2022-09-22T08:49:44.308Z,12.71
2022-09-22T08:52:39.012Z,13.15
2022-09-22T08:55:11.993Z,13.20
2022-09-22T08:57:47.699Z,13.38
2022-09-22T09:00:17.449Z,13.43
2022-09-22T09:03:05.725Z,13.42
2022-09-22T09:05:54.602Z,13.41
2022-09-22T09:08:42.759Z,13.47
2022-09-22T09:11:36.418Z,13.54
2022-09-22T09:14:24.373Z,13.57
2022-09-22T09:17:09.071Z,13.61
2022-09-22T09:19:43.795Z,13.65
2022-09-22T09:22:32.754Z,13.70
2022-09-22T09:25:24.420Z,13.75
2022-09-22T09:27:58.284Z,13.78
2022-09-22T09:30:25.182Z,13.83
2022-09-22T09:32:59.399Z,13.88
2022-09-22T09:35:38.265Z,13.99
2022-09-22T09:38:14.130Z,14.13
2022-09-22T09:40:41.273Z,14.22
2022-09-22T09:43:09.266Z,14.30
2022-09-22T09:45:54.357Z,14.36
2022-09-22T09:48:43.390Z,14.41
2022-09-22T09:51:14.291Z,14.49
2022-09-22T09:53:46.481Z,14.53
2022-09-22T09:56:24.297Z,14.61
2022-09-22T09:59:30.463Z,14.67
2022-09-22T10:01:57.825Z,14.76
2022-09-22T10:04:35.312Z,14.82
2022-09-22T10:07:16.713Z,14.90
2022-09-22T10:09:44.648Z,14.95
2022-09-22T10:12:32.877Z,14.99
2022-09-22T10:15:01.506Z,15.02
2022-09-22T10:17:42.516Z,15.05
2022-09-22T10:20:26.454Z,15.13
2022-09-22T10:22:54.542Z,15.16
2022-09-22T10:25:34.098Z,15.22
2022-09-22T10:28:16.149Z,15.28
2022-09-22T10:30:43.843Z,15.35
2022-09-22T10:33:19.905Z,15.39
2022-09-22T10:36:07.856Z,15.50
2022-09-22T10:38:42.704Z,15.63
2022-09-22T10:41:27.380Z,15.77
2022-09-22T10:44:06.375Z,15.84
2022-09-22T10:46:50.845Z,15.93
2022-09-22T10:49:51.461Z,16.01
2022-09-22T10:52:51.319Z,16.09
2022-09-22T10:55:35.767Z,16.22
2022-09-22T10:58:07.181Z,16.17
2022-09-22T11:00:40.288Z,16.19
2022-09-22T11:03:28.039Z,16.26
2022-09-22T11:06:37.706Z,16.29
2022-09-22T11:09:56.482Z,16.36
2022-09-22T11:12:37.586Z,16.42
2022-09-22T11:15:26.340Z,16.35
2022-09-22T11:18:19.093Z,16.39
2022-09-22T11:20:51.281Z,16.50
2022-09-22T11:23:38.135Z,16.51
2022-09-22T11:26:29.121Z,16.55
2022-09-22T11:29:37.522Z,16.61
2022-09-22T11:32:49.141Z,16.67
2022-09-22T11:35:43.465Z,16.82
2022-09-22T11:38:24.082Z,16.92
2022-09-22T11:41:37.286Z,16.97
2022-09-22T11:44:24.802Z,16.98
2022-09-22T11:47:05.402Z,16.98
2022-09-22T11:49:37.821Z,16.93
2022-09-22T11:52:49.125Z,16.79
2022-09-22T11:55:41.999Z,16.66
2022-09-22T11:58:17.341Z,16.53
2022-09-22T12:01:17.983Z,16.49
2022-09-22T12:03:54.541Z,16.45
2022-09-22T12:06:26.331Z,16.44
2022-09-22T12:09:03.632Z,16.44
2022-09-22T12:11:35.838Z,16.43
2022-09-22T12:14:04.219Z,16.44
2022-09-22T12:16:42.056Z,16.44
2022-09-22T12:19:25.149Z,16.39
2022-09-22T12:22:28.405Z,16.33
2022-09-22T12:24:54.987Z,16.29
2022-09-22T12:27:23.071Z,16.29
2022-09-22T12:30:01.725Z,16.29
2022-09-22T12:32:41.095Z,16.30
2022-09-22T12:35:19.373Z,16.34
2022-09-22T12:37:46.062Z,16.35
2022-09-22T12:40:32.023Z,16.33
2022-09-22T12:43:01.989Z,16.35
2022-09-22T12:45:37.183Z,16.38
2022-09-22T12:48:13.058Z,16.38
2022-09-22T12:50:45.141Z,16.35
2022-09-22T12:53:20.882Z,16.33
2022-09-22T12:55:48.717Z,16.32
2022-09-22T12:58:21.285Z,16.28
2022-09-22T13:00:50.471Z,16.23
2022-09-22T13:03:26.212Z,16.19
2022-09-22T13:06:04.335Z,16.17
2022-09-22T13:08:33.499Z,16.14
2022-09-22T13:11:08.750Z,16.11
2022-09-22T13:13:43.823Z,16.09
2022-09-22T13:16:16.489Z,16.06
2022-09-22T13:18:51.635Z,16.05
2022-09-22T13:21:28.967Z,16.03
2022-09-22T13:23:55.623Z,16.01
2022-09-22T13:26:25.837Z,15.98
2022-09-22T13:29:11.054Z,15.97
2022-09-22T13:31:55.578Z,15.98
2022-09-22T13:34:29.570Z,15.95
2022-09-22T13:37:00.497Z,15.94
2022-09-22T13:39:42.252Z,15.92
2022-09-22T13:42:27.312Z,15.92
2022-09-22T13:45:06.556Z,15.91
2022-09-22T13:47:35.253Z,15.90
2022-09-22T13:50:07.031Z,15.87
2022-09-22T13:52:38.418Z,15.88
2022-09-22T13:55:37.400Z,15.87
2022-09-22T13:58:14.735Z,15.87
2022-09-22T14:01:11.574Z,15.84
2022-09-22T14:03:38.243Z,15.81
2022-09-22T14:06:09.447Z,15.78
2022-09-22T14:08:36.669Z,15.73
2022-09-22T14:11:06.936Z,15.71
2022-09-22T14:14:06.926Z,15.69
2022-09-22T14:17:08.103Z,15.65
2022-09-22T14:19:45.698Z,15.64
2022-09-22T14:22:27.470Z,15.62
2022-09-22T14:25:00.290Z,15.61
2022-09-22T14:27:29.007Z,15.63
2022-09-22T14:29:56.370Z,15.68
2022-09-22T14:32:37.928Z,15.73
2022-09-22T14:35:08.736Z,15.73
2022-09-22T14:37:43.472Z,15.70
2022-09-22T14:40:19.729Z,15.67
2022-09-22T14:42:58.050Z,15.68
2022-09-22T14:45:26.051Z,15.67
2022-09-22T14:48:18.745Z,15.65
2022-09-22T14:51:06.788Z,15.63
2022-09-22T14:53:40.885Z,15.64
2022-09-22T14:56:17.306Z,15.65
2022-09-22T14:58:50.593Z,15.62
2022-09-22T15:01:40.745Z,15.61
2022-09-22T15:04:13.522Z,15.57
2022-09-22T15:06:40.326Z,15.56
2022-09-22T15:09:13.347Z,15.55
2022-09-22T15:12:03.619Z,15.50
2022-09-22T15:14:44.341Z,15.47
2022-09-22T15:17:53.564Z,15.40
2022-09-22T15:20:22.001Z,15.35
2022-09-22T15:22:49.116Z,15.31
2022-09-22T15:25:16.747Z,15.26
2022-09-22T15:27:44.171Z,15.21
2022-09-22T15:30:15.897Z,15.21
2022-09-22T15:32:45.329Z,15.20
2022-09-22T15:35:12.710Z,15.17
2022-09-22T15:37:42.178Z,15.16
2022-09-22T15:40:21.433Z,15.11
2022-09-22T15:43:11.299Z,15.10
2022-09-22T15:45:37.371Z,15.07
2022-09-22T15:48:04.243Z,15.05
2022-09-22T15:50:31.005Z,15.00
2022-09-22T15:52:57.758Z,14.96
2022-09-22T15:55:25.183Z,14.91
2022-09-22T15:57:55.350Z,14.87
2022-09-22T16:00:27.607Z,14.83
2022-09-22T16:02:54.738Z,14.78
2022-09-22T16:05:21.515Z,14.74
2022-09-22T16:07:52.836Z,14.68
2022-09-22T16:10:23.683Z,14.64
2022-09-22T16:12:50.757Z,14.57
2022-09-22T16:15:17.738Z,14.50
2022-09-22T16:17:46.065Z,14.43
2022-09-22T16:20:15.606Z,14.39
2022-09-22T16:22:42.998Z,14.36
2022-09-22T16:25:11.658Z,14.31
2022-09-22T16:27:38.908Z,14.27
2022-09-22T16:30:06.273Z,14.21
2022-09-22T16:32:36.289Z,14.15
2022-09-22T16:35:03.792Z,14.07
2022-09-22T16:37:30.438Z,14.04
2022-09-22T16:39:57.058Z,13.99
2022-09-22T16:42:25.568Z,13.94
2022-09-22T16:44:52.249Z,13.89
2022-09-22T16:47:21.198Z,13.84
2022-09-22T16:49:49.608Z,13.79
2022-09-22T16:52:16.770Z,13.72
2022-09-22T16:54:44.117Z,13.64
2022-09-22T16:57:10.768Z,13.56
2022-09-22T16:59:38.094Z,13.47
2022-09-22T17:02:04.857Z,13.40
2022-09-22T17:04:32.425Z,13.31
2022-09-22T17:06:59.270Z,13.24
2022-09-22T17:09:25.982Z,13.18
2022-09-22T17:11:53.648Z,13.12
2022-09-22T17:14:22.148Z,13.06
2022-09-22T17:16:52.256Z,13.02
2022-09-22T17:19:23.184Z,12.97
2022-09-22T17:21:52.823Z,12.94
2022-09-22T17:24:20.022Z,12.90
2022-09-22T17:26:49.522Z,12.89
2022-09-22T17:29:25.146Z,12.86
2022-09-22T17:31:57.431Z,12.79
2022-09-22T17:34:25.559Z,12.72
2022-09-22T17:36:55.439Z,12.65
2022-09-22T17:39:24.207Z,12.59
2022-09-22T17:41:50.843Z,12.49
2022-09-22T17:44:21.268Z,12.45
2022-09-22T17:47:11.525Z,12.42
2022-09-22T17:49:57.958Z,12.38
2022-09-22T17:52:40.167Z,12.29
2022-09-22T17:55:21.735Z,12.26
2022-09-22T17:57:49.823Z,12.22
2022-09-22T18:00:21.908Z,12.20
2022-09-22T18:02:50.097Z,12.18
2022-09-22T18:05:22.719Z,12.13
2022-09-22T18:07:53.538Z,12.09
2022-09-22T18:10:20.875Z,12.01
2022-09-22T18:12:47.510Z,11.92
2022-09-22T18:15:15.115Z,11.87
2022-09-22T18:17:43.092Z,11.80
2022-09-22T18:20:15.648Z,11.75
2022-09-22T18:22:47.912Z,11.73
2022-09-22T18:25:16.625Z,11.70
2022-09-22T18:27:46.191Z,11.66
2022-09-22T18:30:15.890Z,11.62
2022-09-22T18:32:42.819Z,11.58
2022-09-22T18:35:09.785Z,11.57
2022-09-22T18:37:36.353Z,11.56
2022-09-22T18:40:03.714Z,11.58
2022-09-22T18:42:32.818Z,11.57
2022-09-22T18:44:59.496Z,11.57
2022-09-22T18:47:26.351Z,11.57
2022-09-22T18:49:52.955Z,11.57
2022-09-22T18:52:24.529Z,11.59
2022-09-22T18:54:55.798Z,11.59
2022-09-22T18:57:25.687Z,11.60
2022-09-22T18:59:54.011Z,11.59
2022-09-22T19:02:21.606Z,11.60
2022-09-22T19:04:49.206Z,11.61
2022-09-22T19:07:36.633Z,11.63
2022-09-22T19:10:08.394Z,11.61
2022-09-22T19:12:39.640Z,11.61
2022-09-22T19:15:15.479Z,11.60
2022-09-22T19:17:46.608Z,11.60
2022-09-22T19:20:21.007Z,11.64
2022-09-22T19:22:49.378Z,11.65
2022-09-22T19:25:16.381Z,11.67
2022-09-22T19:27:43.046Z,11.67
2022-09-22T19:30:11.011Z,11.70
2022-09-22T19:32:38.164Z,11.72
2022-09-22T19:35:06.646Z,11.75
2022-09-22T19:37:33.425Z,11.77
2022-09-22T19:40:00.084Z,11.79
2022-09-22T19:42:28.484Z,11.83
2022-09-22T19:44:55.154Z,11.83
2022-09-22T19:47:21.818Z,11.85
2022-09-22T19:49:48.690Z,11.87
2022-09-22T19:52:15.326Z,11.89
2022-09-22T19:54:42.003Z,11.89
2022-09-22T19:57:08.755Z,11.89
2022-09-22T19:59:35.444Z,11.87
2022-09-22T20:02:03.823Z,11.87
2022-09-22T20:04:34.357Z,11.87
2022-09-22T20:07:01.566Z,11.83
2022-09-22T20:09:28.190Z,11.82
2022-09-22T20:11:54.879Z,11.83
2022-09-22T20:14:22.570Z,11.84
2022-09-22T20:17:02.583Z,11.85
2022-09-22T20:19:31.596Z,11.84
2022-09-22T20:22:24.066Z,11.83
2022-09-22T20:24:55.686Z,11.83
2022-09-22T20:27:24.043Z,11.81
2022-09-22T20:29:55.063Z,11.81
2022-09-22T20:32:24.260Z,11.83
2022-09-22T20:34:51.534Z,11.86
2022-09-22T20:37:18.151Z,11.88
2022-09-22T20:39:44.777Z,11.91
2022-09-22T20:42:13.546Z,11.93
2022-09-22T20:44:42.373Z,11.96
2022-09-22T20:47:21.304Z,12.00
2022-09-22T20:49:52.091Z,12.02
2022-09-22T20:52:20.475Z,12.05
2022-09-22T20:54:49.938Z,12.03
2022-09-22T20:57:17.046Z,12.03
2022-09-22T20:59:46.016Z,12.06
2022-09-22T21:02:15.880Z,12.08
2022-09-22T21:04:42.663Z,12.09
2022-09-22T21:07:10.216Z,12.10
2022-09-22T21:09:57.591Z,12.09
2022-09-22T21:12:31.061Z,12.12
2022-09-22T21:14:58.447Z,12.12
2022-09-22T21:17:26.210Z,12.13
2022-09-22T21:19:56.022Z,12.15
2022-09-22T21:22:22.686Z,12.15
2022-09-22T21:24:49.358Z,12.18
2022-09-22T21:27:16.087Z,12.18
2022-09-22T21:29:42.770Z,12.20
2022-09-22T21:32:09.619Z,12.18
2022-09-22T21:34:36.629Z,12.16
2022-09-22T21:37:06.754Z,12.14
2022-09-22T21:39:33.331Z,12.12
2022-09-22T21:42:00.006Z,12.08
2022-09-22T21:44:26.599Z,12.06
2022-09-22T21:46:54.233Z,12.06
2022-09-22T21:49:20.817Z,12.00
2022-09-22T21:51:50.359Z,11.96
2022-09-22T21:54:19.950Z,11.96
2022-09-22T21:56:46.994Z,11.98
2022-09-22T21:59:14.198Z,12.00
2022-09-22T22:01:45.149Z,12.02
2022-09-22T22:04:15.147Z,12.00
2022-09-22T22:06:46.798Z,12.02
2022-09-22T22:09:19.382Z,12.03
2022-09-22T22:11:55.645Z,12.05
2022-09-22T22:14:24.249Z,12.06
2022-09-22T22:16:53.091Z,12.08
2022-09-22T22:19:22.267Z,12.09
2022-09-22T22:21:50.774Z,12.08
2022-09-22T22:24:26.203Z,12.11
2022-09-22T22:26:58.208Z,12.14
2022-09-22T22:29:26.772Z,12.15
2022-09-22T22:31:53.863Z,12.15
2022-09-22T22:34:22.693Z,12.17
2022-09-22T22:36:49.684Z,12.19
2022-09-22T22:39:16.507Z,12.18
2022-09-22T22:41:43.171Z,12.18
2022-09-22T22:44:10.014Z,12.18
2022-09-22T22:46:37.371Z,12.19
2022-09-22T22:49:07.181Z,12.20
2022-09-22T22:51:37.340Z,12.21
2022-09-22T22:54:05.004Z,12.20
2022-09-22T22:56:32.436Z,12.21
2022-09-22T22:58:59.553Z,12.22
2022-09-22T23:01:29.890Z,12.22
2022-09-22T23:04:02.223Z,12.21
2022-09-22T23:06:30.276Z,12.21
2022-09-22T23:08:57.483Z,12.22
2022-09-22T23:11:35.679Z,12.23
2022-09-22T23:14:03.800Z,12.25
2022-09-22T23:16:41.711Z,12.24
2022-09-22T23:19:11.507Z,12.23
2022-09-22T23:21:38.548Z,12.23
2022-09-22T23:24:05.666Z,12.21
2022-09-22T23:26:37.602Z,12.19
2022-09-22T23:29:13.409Z,12.19
2022-09-22T23:31:40.047Z,12.18
2022-09-22T23:34:09.622Z,12.17
2022-09-22T23:36:36.394Z,12.17
2022-09-22T23:39:04.794Z,12.19
2022-09-22T23:41:34.144Z,12.20
2022-09-22T23:44:01.209Z,12.20
2022-09-22T23:46:27.993Z,12.22
2022-09-22T23:48:55.739Z,12.20
2022-09-22T23:51:22.928Z,12.19
2022-09-22T23:53:49.754Z,12.19
2022-09-22T23:56:16.602Z,12.19
2022-09-22T23:58:43.238Z,12.20
